EZY18JL EGKK-EDDH
Flight info
| Callsign | EZY18JL |
|---|---|
| Flight time | 1h 12m |
| Altitude | 37000 |
| Route | FRANE M604 PAAVO Q295 SOMVA DCT MAVAS DCT PARYD DCT GASTU DCT OSTOR T904 RIBSO RIBSO7A |
| Aircraft | A320/M-SDE3FGHIRWY/LB1 |
Departure
| Time | 2026-05-06 16:32 |
|---|---|
| Airport | London Gatwick Airport (EGKK) |
Arrival
| Time | 2026-05-06 17:44 |
|---|---|
| Airport | Hamburg Helmut Schmidt Airport (EDDH) |
| Time | Latitude | Longitude | Altitude | Speed | Heading |
|---|---|---|---|---|---|
| 2026-05-06 15:30 | 51.15827 | -0.17740 | 205 ft | 0 kts | 347° |
| 2026-05-06 16:10 | 51.15825 | -0.17739 | 205 ft | 1 kts | 347° |
| 2026-05-06 16:11 | 51.15809 | -0.17733 | 214 ft | 3 kts | 347° |
| 2026-05-06 16:11 | 51.15789 | -0.17726 | 216 ft | 3 kts | 347° |
| 2026-05-06 16:11 | 51.15770 | -0.17719 | 214 ft | 3 kts | 346° |
| 2026-05-06 16:11 | 51.15751 | -0.17709 | 215 ft | 3 kts | 324° |
| 2026-05-06 16:12 | 51.15739 | -0.17689 | 217 ft | 3 kts | 274° |
| 2026-05-06 16:12 | 51.15739 | -0.17671 | 212 ft | 2 kts | 257° |
| 2026-05-06 16:12 | 51.15742 | -0.17653 | 215 ft | 1 kts | 257° |
| 2026-05-06 16:15 | 51.15741 | -0.17662 | 211 ft | 2 kts | 257° |
| 2026-05-06 16:15 | 51.15736 | -0.17698 | 217 ft | 5 kts | 257° |
| 2026-05-06 16:15 | 51.15726 | -0.17773 | 205 ft | 8 kts | 257° |
| 2026-05-06 16:15 | 51.15713 | -0.17863 | 206 ft | 8 kts | 257° |
| 2026-05-06 16:16 | 51.15702 | -0.17947 | 214 ft | 7 kts | 257° |
| 2026-05-06 16:16 | 51.15692 | -0.18016 | 210 ft | 6 kts | 257° |
| 2026-05-06 16:16 | 51.15683 | -0.18081 | 205 ft | 7 kts | 258° |
| 2026-05-06 16:16 | 51.15672 | -0.18161 | 212 ft | 8 kts | 258° |
| 2026-05-06 16:17 | 51.15656 | -0.18279 | 209 ft | 13 kts | 257° |
| 2026-05-06 16:17 | 51.15632 | -0.18454 | 215 ft | 19 kts | 257° |
| 2026-05-06 16:17 | 51.15600 | -0.18685 | 209 ft | 22 kts | 257° |
| 2026-05-06 16:17 | 51.15568 | -0.18818 | 208 ft | 11 kts | 214° |
| 2026-05-06 16:18 | 51.15496 | -0.18813 | 208 ft | 10 kts | 169° |
| 2026-05-06 16:18 | 51.15433 | -0.18792 | 206 ft | 9 kts | 168° |
| 2026-05-06 16:18 | 51.15373 | -0.18771 | 210 ft | 11 kts | 167° |
| 2026-05-06 16:18 | 51.15281 | -0.18738 | 207 ft | 16 kts | 167° |
| 2026-05-06 16:19 | 51.15175 | -0.18702 | 209 ft | 15 kts | 171° |
| 2026-05-06 16:19 | 51.15118 | -0.18826 | 207 ft | 16 kts | 258° |
| 2026-05-06 16:19 | 51.15092 | -0.19018 | 205 ft | 19 kts | 257° |
| 2026-05-06 16:19 | 51.15060 | -0.19241 | 205 ft | 22 kts | 258° |
| 2026-05-06 16:20 | 51.15026 | -0.19494 | 213 ft | 25 kts | 258° |
| 2026-05-06 16:20 | 51.14986 | -0.19778 | 210 ft | 27 kts | 257° |
| 2026-05-06 16:20 | 51.14948 | -0.20064 | 205 ft | 24 kts | 257° |
| 2026-05-06 16:20 | 51.14912 | -0.20324 | 211 ft | 24 kts | 257° |
| 2026-05-06 16:21 | 51.14883 | -0.20534 | 210 ft | 18 kts | 258° |
| 2026-05-06 16:21 | 51.14820 | -0.20661 | 204 ft | 13 kts | 210° |
| 2026-05-06 16:21 | 51.14777 | -0.20698 | 210 ft | 0 kts | 208° |
| 2026-05-06 16:28 | 51.14772 | -0.20702 | 213 ft | 2 kts | 208° |
| 2026-05-06 16:29 | 51.14753 | -0.20717 | 208 ft | 3 kts | 203° |
| 2026-05-06 16:29 | 51.14720 | -0.20724 | 212 ft | 7 kts | 173° |
| 2026-05-06 16:29 | 51.14703 | -0.20719 | 209 ft | 0 kts | 168° |
| 2026-05-06 16:30 | 51.14684 | -0.20712 | 212 ft | 13 kts | 168° |
| 2026-05-06 16:30 | 51.14596 | -0.20635 | 211 ft | 9 kts | 99° |
| 2026-05-06 16:30 | 51.14600 | -0.20595 | 213 ft | 0 kts | 77° |
| 2026-05-06 16:31 | 51.14601 | -0.20587 | 214 ft | 8 kts | 77° |
| 2026-05-06 16:31 | 51.14657 | -0.20193 | 214 ft | 72 kts | 78° |
| 2026-05-06 16:31 | 51.14811 | -0.19075 | 209 ft | 132 kts | 78° |
| 2026-05-06 16:31 | 51.15041 | -0.17397 | 319 ft | 169 kts | 77° |
| 2026-05-06 16:32 | 51.15280 | -0.15554 | 1032 ft | 169 kts | 75° |
| 2026-05-06 16:32 | 51.15533 | -0.13738 | 1844 ft | 167 kts | 75° |
| 2026-05-06 16:32 | 51.15792 | -0.11851 | 2360 ft | 182 kts | 76° |
| 2026-05-06 16:32 | 51.16071 | -0.09779 | 2752 ft | 202 kts | 76° |
| 2026-05-06 16:33 | 51.16379 | -0.07475 | 3108 ft | 225 kts | 75° |
| 2026-05-06 16:33 | 51.16721 | -0.04948 | 3519 ft | 248 kts | 76° |
| 2026-05-06 16:33 | 51.16846 | -0.02133 | 4268 ft | 261 kts | 91° |
| 2026-05-06 16:34 | 51.16678 | 0.03775 | 5537 ft | 274 kts | 89° |
| 2026-05-06 16:34 | 51.16638 | 0.06786 | 6549 ft | 273 kts | 89° |
| 2026-05-06 16:34 | 51.16674 | 0.09830 | 7409 ft | 275 kts | 78° |
| 2026-05-06 16:34 | 51.17292 | 0.12701 | 8227 ft | 276 kts | 57° |
| 2026-05-06 16:35 | 51.18579 | 0.14944 | 9029 ft | 277 kts | 33° |
| 2026-05-06 16:35 | 51.20210 | 0.16622 | 9866 ft | 281 kts | 31° |
| 2026-05-06 16:35 | 51.21899 | 0.18309 | 10399 ft | 296 kts | 30° |
| 2026-05-06 16:35 | 51.23693 | 0.20094 | 10699 ft | 317 kts | 31° |
| 2026-05-06 16:36 | 51.25592 | 0.21989 | 11322 ft | 325 kts | 31° |
| 2026-05-06 16:36 | 51.27523 | 0.23927 | 12063 ft | 330 kts | 31° |
| 2026-05-06 16:36 | 51.29476 | 0.25899 | 12815 ft | 335 kts | 31° |
| 2026-05-06 16:36 | 51.31456 | 0.27902 | 13561 ft | 339 kts | 32° |
| 2026-05-06 16:37 | 51.33461 | 0.29936 | 14247 ft | 343 kts | 31° |
| 2026-05-06 16:37 | 51.35482 | 0.31988 | 14910 ft | 346 kts | 31° |
| 2026-05-06 16:37 | 51.37529 | 0.34066 | 15568 ft | 350 kts | 31° |
| 2026-05-06 16:37 | 51.39596 | 0.36168 | 16221 ft | 354 kts | 31° |
| 2026-05-06 16:38 | 51.41681 | 0.38292 | 16869 ft | 357 kts | 31° |
| 2026-05-06 16:38 | 51.43784 | 0.40440 | 17517 ft | 361 kts | 31° |
| 2026-05-06 16:38 | 51.45884 | 0.42586 | 18158 ft | 364 kts | 31° |
| 2026-05-06 16:38 | 51.48032 | 0.44777 | 18712 ft | 368 kts | 31° |
| 2026-05-06 16:39 | 51.50199 | 0.46986 | 19272 ft | 371 kts | 31° |
| 2026-05-06 16:39 | 51.52388 | 0.49218 | 19826 ft | 374 kts | 31° |
| 2026-05-06 16:39 | 51.54595 | 0.51476 | 20378 ft | 378 kts | 31° |
| 2026-05-06 16:39 | 51.56824 | 0.53763 | 20921 ft | 382 kts | 31° |
| 2026-05-06 16:40 | 51.59069 | 0.56070 | 21461 ft | 385 kts | 32° |
| 2026-05-06 16:40 | 51.61335 | 0.58402 | 21996 ft | 389 kts | 31° |
| 2026-05-06 16:40 | 51.63629 | 0.60766 | 22537 ft | 393 kts | 32° |
| 2026-05-06 16:40 | 51.65907 | 0.63116 | 23068 ft | 396 kts | 31° |
| 2026-05-06 16:41 | 51.68240 | 0.65527 | 23585 ft | 400 kts | 32° |
| 2026-05-06 16:41 | 51.70593 | 0.67958 | 24015 ft | 404 kts | 32° |
| 2026-05-06 16:41 | 51.72974 | 0.70421 | 24446 ft | 408 kts | 32° |
| 2026-05-06 16:41 | 51.75368 | 0.72899 | 24870 ft | 411 kts | 32° |
| 2026-05-06 16:42 | 51.77785 | 0.75407 | 25285 ft | 414 kts | 32° |
| 2026-05-06 16:42 | 51.80182 | 0.77894 | 25692 ft | 417 kts | 32° |
| 2026-05-06 16:42 | 51.82579 | 0.80573 | 26099 ft | 421 kts | 39° |
| 2026-05-06 16:42 | 51.84718 | 0.83819 | 26501 ft | 423 kts | 48° |
| 2026-05-06 16:43 | 51.86533 | 0.87572 | 26886 ft | 425 kts | 57° |
| 2026-05-06 16:43 | 51.87958 | 0.91699 | 27278 ft | 427 kts | 66° |
| 2026-05-06 16:43 | 51.89115 | 0.96134 | 27675 ft | 429 kts | 68° |
| 2026-05-06 16:43 | 51.90262 | 1.00600 | 28074 ft | 431 kts | 68° |
| 2026-05-06 16:44 | 51.91415 | 1.05091 | 28461 ft | 433 kts | 69° |
| 2026-05-06 16:44 | 51.92571 | 1.09601 | 28836 ft | 435 kts | 69° |
| 2026-05-06 16:44 | 51.93733 | 1.14146 | 29194 ft | 437 kts | 69° |
| 2026-05-06 16:44 | 51.94898 | 1.18710 | 29545 ft | 440 kts | 69° |
| 2026-05-06 16:45 | 51.96065 | 1.23311 | 29895 ft | 442 kts | 69° |
| 2026-05-06 16:45 | 51.97236 | 1.27943 | 30196 ft | 445 kts | 69° |
| 2026-05-06 16:45 | 51.98410 | 1.32596 | 30471 ft | 447 kts | 69° |
| 2026-05-06 16:45 | 51.99572 | 1.37211 | 30734 ft | 449 kts | 69° |
| 2026-05-06 16:46 | 52.00759 | 1.41913 | 30994 ft | 451 kts | 69° |
| 2026-05-06 16:46 | 52.01950 | 1.46643 | 31256 ft | 453 kts | 69° |
| 2026-05-06 16:46 | 52.03136 | 1.51378 | 31611 ft | 453 kts | 69° |
| 2026-05-06 16:46 | 52.04320 | 1.56113 | 31984 ft | 452 kts | 69° |
| 2026-05-06 16:47 | 52.05502 | 1.60841 | 32353 ft | 451 kts | 69° |
| 2026-05-06 16:47 | 52.06679 | 1.65559 | 32714 ft | 451 kts | 69° |
| 2026-05-06 16:47 | 52.07456 | 1.68685 | 32970 ft | 450 kts | 70° |
| 2026-05-06 16:47 | 52.08622 | 1.73397 | 33329 ft | 449 kts | 70° |
| 2026-05-06 16:48 | 52.10163 | 1.79631 | 33809 ft | 448 kts | 70° |
| 2026-05-06 16:48 | 52.11323 | 1.84329 | 34143 ft | 448 kts | 70° |
| 2026-05-06 16:48 | 52.12482 | 1.89031 | 34423 ft | 447 kts | 70° |
| 2026-05-06 16:48 | 52.13639 | 1.93735 | 34706 ft | 447 kts | 70° |
| 2026-05-06 16:49 | 52.14793 | 1.98437 | 34963 ft | 448 kts | 70° |
| 2026-05-06 16:49 | 52.15560 | 2.01561 | 35134 ft | 448 kts | 70° |
| 2026-05-06 16:49 | 52.16715 | 2.06268 | 35381 ft | 448 kts | 70° |
| 2026-05-06 16:49 | 52.17868 | 2.10985 | 35624 ft | 448 kts | 70° |
| 2026-05-06 16:50 | 52.19018 | 2.15706 | 35857 ft | 449 kts | 70° |
| 2026-05-06 16:50 | 52.20536 | 2.21971 | 36170 ft | 449 kts | 70° |
| 2026-05-06 16:50 | 52.21680 | 2.26707 | 36375 ft | 449 kts | 70° |
| 2026-05-06 16:50 | 52.22438 | 2.29846 | 36516 ft | 449 kts | 70° |
| 2026-05-06 16:51 | 52.23583 | 2.34588 | 36725 ft | 450 kts | 70° |
| 2026-05-06 16:51 | 52.24727 | 2.39339 | 36917 ft | 450 kts | 70° |
| 2026-05-06 16:51 | 52.25871 | 2.44089 | 36970 ft | 449 kts | 70° |
| 2026-05-06 16:52 | 52.28144 | 2.53562 | 36965 ft | 447 kts | 70° |
| 2026-05-06 16:52 | 52.30400 | 2.63035 | 36961 ft | 447 kts | 71° |
| 2026-05-06 16:53 | 52.32182 | 2.72671 | 36961 ft | 446 kts | 76° |
| 2026-05-06 16:53 | 52.33897 | 2.82421 | 36969 ft | 446 kts | 76° |
| 2026-05-06 16:54 | 52.35613 | 2.92182 | 36958 ft | 446 kts | 76° |
| 2026-05-06 16:54 | 52.37322 | 3.01951 | 36952 ft | 447 kts | 76° |
| 2026-05-06 16:55 | 52.39014 | 3.11733 | 36944 ft | 447 kts | 76° |
| 2026-05-06 16:55 | 52.41143 | 3.21223 | 36947 ft | 449 kts | 66° |
| 2026-05-06 16:56 | 52.43776 | 3.30521 | 36943 ft | 450 kts | 67° |
| 2026-05-06 16:56 | 52.46398 | 3.39830 | 36938 ft | 450 kts | 67° |
| 2026-05-06 16:57 | 52.49008 | 3.49160 | 36932 ft | 450 kts | 67° |
| 2026-05-06 16:57 | 52.51594 | 3.58444 | 36934 ft | 451 kts | 67° |
| 2026-05-06 16:58 | 52.54195 | 3.67809 | 36932 ft | 451 kts | 67° |
| 2026-05-06 16:58 | 52.56797 | 3.77193 | 36932 ft | 451 kts | 68° |
| 2026-05-06 16:59 | 52.59385 | 3.86596 | 36925 ft | 452 kts | 68° |
| 2026-05-06 16:59 | 52.61962 | 3.95998 | 36917 ft | 455 kts | 68° |
| 2026-05-06 17:00 | 52.64563 | 4.05509 | 36919 ft | 456 kts | 68° |
| 2026-05-06 17:00 | 52.67166 | 4.15054 | 36913 ft | 458 kts | 68° |
| 2026-05-06 17:01 | 52.69768 | 4.24644 | 36908 ft | 459 kts | 68° |
| 2026-05-06 17:01 | 52.72365 | 4.34264 | 36917 ft | 460 kts | 68° |
| 2026-05-06 17:02 | 52.74940 | 4.43855 | 36935 ft | 460 kts | 68° |
| 2026-05-06 17:02 | 52.77526 | 4.53531 | 36936 ft | 461 kts | 68° |
| 2026-05-06 17:03 | 52.80107 | 4.63216 | 36941 ft | 461 kts | 68° |
| 2026-05-06 17:03 | 52.82685 | 4.72924 | 36938 ft | 461 kts | 68° |
| 2026-05-06 17:04 | 52.85233 | 4.82592 | 36942 ft | 462 kts | 68° |
| 2026-05-06 17:04 | 52.87794 | 4.92343 | 36943 ft | 462 kts | 68° |
| 2026-05-06 17:05 | 52.90355 | 5.02108 | 36942 ft | 463 kts | 68° |
| 2026-05-06 17:05 | 52.92919 | 5.11894 | 36938 ft | 463 kts | 68° |
| 2026-05-06 17:06 | 52.95470 | 5.21708 | 36941 ft | 463 kts | 69° |
| 2026-05-06 17:06 | 52.97987 | 5.31470 | 36936 ft | 464 kts | 69° |
| 2026-05-06 17:07 | 53.00517 | 5.41323 | 36946 ft | 464 kts | 69° |
| 2026-05-06 17:07 | 53.03048 | 5.51177 | 36944 ft | 464 kts | 69° |
| 2026-05-06 17:08 | 53.05575 | 5.61063 | 36948 ft | 465 kts | 69° |
| 2026-05-06 17:08 | 53.08093 | 5.70964 | 36949 ft | 465 kts | 69° |
| 2026-05-06 17:09 | 53.10600 | 5.80883 | 36951 ft | 465 kts | 69° |
| 2026-05-06 17:09 | 53.13089 | 5.90826 | 36949 ft | 465 kts | 70° |
| 2026-05-06 17:10 | 53.15343 | 6.00858 | 36952 ft | 465 kts | 72° |
| 2026-05-06 17:10 | 53.17458 | 6.11061 | 36945 ft | 469 kts | 73° |
| 2026-05-06 17:11 | 53.19612 | 6.21440 | 36928 ft | 478 kts | 72° |
| 2026-05-06 17:11 | 53.21844 | 6.31933 | 36924 ft | 481 kts | 72° |
| 2026-05-06 17:12 | 53.24096 | 6.42474 | 36925 ft | 482 kts | 72° |
| 2026-05-06 17:12 | 53.26326 | 6.53035 | 36920 ft | 482 kts | 72° |
| 2026-05-06 17:13 | 53.28539 | 6.63619 | 36927 ft | 483 kts | 72° |
| 2026-05-06 17:13 | 53.30741 | 6.74222 | 36930 ft | 483 kts | 72° |
| 2026-05-06 17:14 | 53.32932 | 6.84776 | 36936 ft | 484 kts | 72° |
| 2026-05-06 17:14 | 53.35129 | 6.95418 | 36565 ft | 484 kts | 72° |
| 2026-05-06 17:14 | 53.36223 | 7.00749 | 36302 ft | 484 kts | 72° |
| 2026-05-06 17:15 | 53.37331 | 7.06153 | 36043 ft | 485 kts | 72° |
| 2026-05-06 17:15 | 53.38411 | 7.11441 | 35099 ft | 491 kts | 73° |
| 2026-05-06 17:15 | 53.39513 | 7.16862 | 34307 ft | 487 kts | 73° |
| 2026-05-06 17:15 | 53.40590 | 7.22166 | 33682 ft | 476 kts | 73° |
| 2026-05-06 17:16 | 53.41639 | 7.27337 | 33155 ft | 462 kts | 73° |
| 2026-05-06 17:16 | 53.42661 | 7.32379 | 32603 ft | 451 kts | 73° |
| 2026-05-06 17:16 | 53.43655 | 7.37299 | 32075 ft | 441 kts | 73° |
| 2026-05-06 17:16 | 53.44631 | 7.42157 | 31548 ft | 440 kts | 73° |
| 2026-05-06 17:17 | 53.45604 | 7.47016 | 31042 ft | 439 kts | 73° |
| 2026-05-06 17:17 | 53.46571 | 7.51864 | 30534 ft | 438 kts | 73° |
| 2026-05-06 17:17 | 53.47538 | 7.56712 | 30034 ft | 437 kts | 73° |
| 2026-05-06 17:17 | 53.48486 | 7.61474 | 29503 ft | 435 kts | 73° |
| 2026-05-06 17:18 | 53.49438 | 7.66272 | 29030 ft | 432 kts | 73° |
| 2026-05-06 17:18 | 53.50383 | 7.71039 | 28561 ft | 428 kts | 73° |
| 2026-05-06 17:18 | 53.51319 | 7.75773 | 28100 ft | 425 kts | 73° |
| 2026-05-06 17:18 | 53.52244 | 7.80476 | 27636 ft | 423 kts | 73° |
| 2026-05-06 17:19 | 53.53163 | 7.85152 | 27161 ft | 421 kts | 73° |
| 2026-05-06 17:19 | 53.54082 | 7.89829 | 26684 ft | 420 kts | 73° |
| 2026-05-06 17:19 | 53.54995 | 7.94488 | 26205 ft | 419 kts | 73° |
| 2026-05-06 17:19 | 53.55878 | 7.99000 | 25979 ft | 404 kts | 73° |
| 2026-05-06 17:20 | 53.56745 | 8.03448 | 25059 ft | 404 kts | 72° |
| 2026-05-06 17:20 | 53.57627 | 8.07996 | 24013 ft | 410 kts | 72° |
| 2026-05-06 17:20 | 53.58501 | 8.12516 | 23305 ft | 404 kts | 72° |
| 2026-05-06 17:20 | 53.59364 | 8.16980 | 22497 ft | 398 kts | 72° |
| 2026-05-06 17:21 | 53.60211 | 8.21385 | 21716 ft | 393 kts | 72° |
| 2026-05-06 17:21 | 53.61046 | 8.25733 | 20945 ft | 387 kts | 72° |
| 2026-05-06 17:21 | 53.61869 | 8.30024 | 20194 ft | 382 kts | 72° |
| 2026-05-06 17:21 | 53.62680 | 8.34255 | 19459 ft | 377 kts | 72° |
| 2026-05-06 17:22 | 53.63478 | 8.38429 | 18750 ft | 372 kts | 72° |
| 2026-05-06 17:22 | 53.64267 | 8.42561 | 18040 ft | 368 kts | 72° |
| 2026-05-06 17:22 | 53.65034 | 8.46585 | 17259 ft | 363 kts | 72° |
| 2026-05-06 17:22 | 53.65798 | 8.50609 | 16511 ft | 359 kts | 72° |
| 2026-05-06 17:23 | 53.66550 | 8.54591 | 15792 ft | 354 kts | 72° |
| 2026-05-06 17:23 | 53.67294 | 8.58528 | 15092 ft | 350 kts | 72° |
| 2026-05-06 17:23 | 53.68026 | 8.62412 | 14413 ft | 346 kts | 72° |
| 2026-05-06 17:23 | 53.68749 | 8.66254 | 13747 ft | 342 kts | 72° |
| 2026-05-06 17:24 | 53.69465 | 8.70055 | 13006 ft | 338 kts | 71° |
| 2026-05-06 17:24 | 53.70172 | 8.73810 | 12270 ft | 334 kts | 72° |
| 2026-05-06 17:24 | 53.70871 | 8.77526 | 11549 ft | 330 kts | 72° |
| 2026-05-06 17:24 | 53.71558 | 8.81196 | 10855 ft | 327 kts | 72° |
| 2026-05-06 17:25 | 53.72239 | 8.84841 | 10190 ft | 323 kts | 72° |
| 2026-05-06 17:25 | 53.72902 | 8.88403 | 9921 ft | 322 kts | 72° |
| 2026-05-06 17:25 | 53.73572 | 8.92021 | 9889 ft | 323 kts | 72° |
| 2026-05-06 17:25 | 53.74237 | 8.95622 | 9884 ft | 316 kts | 72° |
| 2026-05-06 17:26 | 53.74876 | 8.99081 | 9891 ft | 303 kts | 72° |
| 2026-05-06 17:26 | 53.75499 | 9.02456 | 9890 ft | 301 kts | 72° |
| 2026-05-06 17:26 | 53.76120 | 9.05824 | 9894 ft | 300 kts | 72° |
| 2026-05-06 17:26 | 53.76741 | 9.09193 | 9891 ft | 300 kts | 72° |
| 2026-05-06 17:27 | 53.77360 | 9.12557 | 9894 ft | 300 kts | 72° |
| 2026-05-06 17:27 | 53.77980 | 9.15930 | 9819 ft | 300 kts | 72° |
| 2026-05-06 17:27 | 53.78590 | 9.19281 | 9463 ft | 297 kts | 72° |
| 2026-05-06 17:27 | 53.79195 | 9.22602 | 9078 ft | 295 kts | 72° |
| 2026-05-06 17:28 | 53.79788 | 9.25857 | 8716 ft | 292 kts | 72° |
| 2026-05-06 17:28 | 53.80343 | 9.29134 | 8353 ft | 289 kts | 78° |
| 2026-05-06 17:28 | 53.80489 | 9.32500 | 7983 ft | 286 kts | 93° |
| 2026-05-06 17:28 | 53.80147 | 9.35796 | 7611 ft | 284 kts | 107° |
| 2026-05-06 17:29 | 53.79354 | 9.38830 | 7243 ft | 281 kts | 121° |
| 2026-05-06 17:29 | 53.78303 | 9.41493 | 6927 ft | 278 kts | 124° |
| 2026-05-06 17:29 | 53.77136 | 9.44092 | 6887 ft | 279 kts | 136° |
| 2026-05-06 17:29 | 53.75515 | 9.45857 | 6887 ft | 279 kts | 160° |
| 2026-05-06 17:30 | 53.73633 | 9.46411 | 6709 ft | 271 kts | 184° |
| 2026-05-06 17:30 | 53.71879 | 9.45724 | 6567 ft | 250 kts | 205° |
| 2026-05-06 17:30 | 53.70359 | 9.44400 | 6224 ft | 245 kts | 202° |
| 2026-05-06 17:30 | 53.68703 | 9.43824 | 5878 ft | 243 kts | 180° |
| 2026-05-06 17:31 | 53.67038 | 9.44164 | 5519 ft | 241 kts | 163° |
| 2026-05-06 17:31 | 53.65434 | 9.44859 | 5170 ft | 241 kts | 164° |
| 2026-05-06 17:31 | 53.63812 | 9.45523 | 4850 ft | 239 kts | 164° |
| 2026-05-06 17:31 | 53.62195 | 9.46168 | 4529 ft | 238 kts | 164° |
| 2026-05-06 17:32 | 53.60590 | 9.46803 | 4205 ft | 237 kts | 164° |
| 2026-05-06 17:32 | 53.58995 | 9.47429 | 4014 ft | 236 kts | 164° |
| 2026-05-06 17:32 | 53.57397 | 9.48056 | 4005 ft | 236 kts | 164° |
| 2026-05-06 17:32 | 53.55795 | 9.48688 | 4007 ft | 237 kts | 164° |
| 2026-05-06 17:33 | 53.54193 | 9.49318 | 4008 ft | 236 kts | 164° |
| 2026-05-06 17:33 | 53.52589 | 9.49941 | 4005 ft | 237 kts | 167° |
| 2026-05-06 17:33 | 53.50940 | 9.49980 | 4008 ft | 240 kts | 189° |
| 2026-05-06 17:33 | 53.49375 | 9.49010 | 4005 ft | 242 kts | 211° |
| 2026-05-06 17:34 | 53.48113 | 9.47156 | 4009 ft | 243 kts | 230° |
| 2026-05-06 17:34 | 53.47029 | 9.44965 | 4010 ft | 244 kts | 230° |
| 2026-05-06 17:34 | 53.45938 | 9.42787 | 4008 ft | 244 kts | 230° |
| 2026-05-06 17:34 | 53.44860 | 9.40646 | 4008 ft | 244 kts | 229° |
| 2026-05-06 17:35 | 53.43633 | 9.38722 | 4005 ft | 242 kts | 207° |
| 2026-05-06 17:35 | 53.42036 | 9.38045 | 4009 ft | 238 kts | 174° |
| 2026-05-06 17:35 | 53.40503 | 9.38867 | 4009 ft | 231 kts | 141° |
| 2026-05-06 17:36 | 53.39287 | 9.43433 | 4009 ft | 222 kts | 87° |
| 2026-05-06 17:36 | 53.39354 | 9.46021 | 4005 ft | 222 kts | 84° |
| 2026-05-06 17:36 | 53.39462 | 9.48610 | 4006 ft | 223 kts | 84° |
| 2026-05-06 17:36 | 53.39652 | 9.51171 | 4004 ft | 222 kts | 72° |
| 2026-05-06 17:37 | 53.40372 | 9.53427 | 4006 ft | 221 kts | 51° |
| 2026-05-06 17:37 | 53.41350 | 9.55371 | 4009 ft | 221 kts | 50° |
| 2026-05-06 17:37 | 53.42347 | 9.57336 | 4007 ft | 221 kts | 50° |
| 2026-05-06 17:37 | 53.43342 | 9.59311 | 4008 ft | 221 kts | 50° |
| 2026-05-06 17:38 | 53.44332 | 9.61282 | 4007 ft | 221 kts | 50° |
| 2026-05-06 17:38 | 53.45325 | 9.63261 | 4005 ft | 221 kts | 50° |
| 2026-05-06 17:38 | 53.46315 | 9.65235 | 4006 ft | 221 kts | 50° |
| 2026-05-06 17:38 | 53.47306 | 9.67213 | 4010 ft | 221 kts | 50° |
| 2026-05-06 17:39 | 53.48298 | 9.69194 | 4008 ft | 221 kts | 50° |
| 2026-05-06 17:39 | 53.49267 | 9.71130 | 3928 ft | 213 kts | 50° |
| 2026-05-06 17:39 | 53.50197 | 9.72991 | 3691 ft | 209 kts | 50° |
| 2026-05-06 17:39 | 53.51127 | 9.74853 | 3433 ft | 207 kts | 50° |
| 2026-05-06 17:40 | 53.52046 | 9.76695 | 3159 ft | 205 kts | 51° |
| 2026-05-06 17:40 | 53.52957 | 9.78520 | 2874 ft | 202 kts | 51° |
| 2026-05-06 17:40 | 53.53856 | 9.80324 | 2597 ft | 200 kts | 50° |
| 2026-05-06 17:40 | 53.54741 | 9.82102 | 2332 ft | 198 kts | 51° |
| 2026-05-06 17:41 | 53.55618 | 9.83863 | 2063 ft | 195 kts | 51° |
| 2026-05-06 17:41 | 53.56469 | 9.85574 | 1800 ft | 184 kts | 51° |
| 2026-05-06 17:41 | 53.57257 | 9.87159 | 1577 ft | 169 kts | 51° |
| 2026-05-06 17:41 | 53.57988 | 9.88631 | 1316 ft | 159 kts | 50° |
| 2026-05-06 17:42 | 53.58664 | 9.89994 | 1109 ft | 146 kts | 51° |
| 2026-05-06 17:42 | 53.59298 | 9.91261 | 857 ft | 142 kts | 50° |
| 2026-05-06 17:42 | 53.59923 | 9.92523 | 624 ft | 139 kts | 52° |
| 2026-05-06 17:42 | 53.60536 | 9.93778 | 475 ft | 138 kts | 50° |
| 2026-05-06 17:43 | 53.61159 | 9.95031 | 320 ft | 141 kts | 49° |
| 2026-05-06 17:43 | 53.61792 | 9.96297 | 143 ft | 141 kts | 51° |
| 2026-05-06 17:43 | 53.62405 | 9.97544 | 41 ft | 127 kts | 51° |
| 2026-05-06 17:43 | 53.62866 | 9.98480 | 44 ft | 79 kts | 51° |
| 2026-05-06 17:44 | 53.63109 | 9.98970 | 46 ft | 30 kts | 50° |
| 2026-05-06 17:44 | 53.63223 | 9.99199 | 47 ft | 31 kts | 50° |
| 2026-05-06 17:44 | 53.63295 | 9.99492 | 47 ft | 22 kts | 93° |
| 2026-05-06 17:44 | 53.63280 | 9.99631 | 48 ft | 0 kts | 99° |
| 2026-05-06 17:46 | 53.63279 | 9.99634 | 48 ft | 2 kts | 99° |
| 2026-05-06 17:46 | 53.63268 | 9.99708 | 46 ft | 11 kts | 118° |
| 2026-05-06 17:46 | 53.63191 | 9.99788 | 48 ft | 15 kts | 153° |
| 2026-05-06 17:47 | 53.63084 | 9.99882 | 48 ft | 19 kts | 152° |
| 2026-05-06 17:47 | 53.62996 | 9.99958 | 45 ft | 5 kts | 153° |
| 2026-05-06 17:48 | 53.62995 | 9.99959 | 46 ft | 2 kts | 153° |
| 2026-05-06 17:48 | 53.62957 | 9.99995 | 48 ft | 9 kts | 139° |
| 2026-05-06 17:48 | 53.62976 | 10.00084 | 48 ft | 11 kts | 28° |
| 2026-05-06 17:49 | 53.62981 | 10.00185 | 48 ft | 11 kts | 121° |
| 2026-05-06 17:49 | 53.62950 | 10.00267 | 48 ft | 3 kts | 123° |
| 2026-05-06 17:49 | 53.62945 | 10.00281 | 46 ft | 1 kts | 123° |
| 2026-05-06 17:49 | 53.62943 | 10.00286 | 47 ft | 0 kts | 122° |